createdAt,value
2023-01-29T00:00:14.933Z,1.40
2023-01-29T00:02:45.703Z,1.50
2023-01-29T00:05:27.582Z,1.30
2023-01-29T00:08:03.251Z,1.20
2023-01-29T00:10:30.464Z,1.60
2023-01-29T00:12:57.815Z,1.20
2023-01-29T00:15:25.231Z,1.30
2023-01-29T00:17:52.391Z,1.40
2023-01-29T00:20:20.225Z,1.10
2023-01-29T00:22:47.500Z,1.20
2023-01-29T00:25:14.639Z,1.10
2023-01-29T00:27:41.747Z,1.20
2023-01-29T00:30:09.526Z,1.10
2023-01-29T00:32:39.261Z,1.30
2023-01-29T00:35:07.556Z,1.10
2023-01-29T00:37:37.812Z,1.30
2023-01-29T00:40:05.889Z,1.40
2023-01-29T00:42:51.447Z,1.10
2023-01-29T00:45:19.073Z,1.30
2023-01-29T00:47:46.213Z,1.40
2023-01-29T00:50:24.123Z,1.10
2023-01-29T00:52:52.937Z,1.30
2023-01-29T00:55:20.757Z,1.60
2023-01-29T00:57:48.347Z,1.60
2023-01-29T01:00:18.832Z,1.50
2023-01-29T01:03:04.509Z,1.50
2023-01-29T01:05:31.804Z,1.40
2023-01-29T01:07:59.437Z,1.30
2023-01-29T01:10:32.633Z,1.50
2023-01-29T01:13:05.906Z,1.50
2023-01-29T01:15:38.389Z,1.30
2023-01-29T01:18:11.383Z,1.60
2023-01-29T01:20:39.690Z,1.40
2023-01-29T01:23:06.704Z,1.30
2023-01-29T01:25:34.052Z,1.60
2023-01-29T01:28:01.324Z,1.50
2023-01-29T01:30:28.467Z,1.40
2023-01-29T01:32:55.852Z,1.30
2023-01-29T01:35:22.973Z,1.50
2023-01-29T01:37:50.578Z,1.40
2023-01-29T01:40:24.669Z,1.60
2023-01-29T01:42:54.316Z,1.50
2023-01-29T01:45:33.267Z,1.30
2023-01-29T01:48:15.373Z,1.30
2023-01-29T01:50:52.358Z,1.30
2023-01-29T01:53:41.795Z,1.40
2023-01-29T01:56:14.468Z,1.30
2023-01-29T01:58:47.254Z,1.40
2023-01-29T02:01:14.796Z,1.80
2023-01-29T02:04:05.852Z,1.40
2023-01-29T02:06:52.920Z,1.30
2023-01-29T02:09:39.483Z,1.80
2023-01-29T02:12:11.989Z,1.80
2023-01-29T02:14:47.608Z,1.50
2023-01-29T02:17:24.450Z,1.60
2023-01-29T02:20:26.966Z,1.40
2023-01-29T02:23:12.851Z,1.60
2023-01-29T02:26:11.043Z,1.30
2023-01-29T02:28:56.531Z,1.70
2023-01-29T02:31:40.411Z,1.50
2023-01-29T02:35:03.040Z,1.60
2023-01-29T02:37:38.731Z,1.40
2023-01-29T02:40:17.603Z,1.50
2023-01-29T02:43:03.863Z,1.40
2023-01-29T02:45:43.827Z,1.70
2023-01-29T02:48:19.223Z,1.60
2023-01-29T02:51:06.854Z,1.60
2023-01-29T02:54:01.819Z,1.40
2023-01-29T02:56:54.077Z,1.20
2023-01-29T02:59:27.473Z,1.40
2023-01-29T03:02:10.335Z,1.60
2023-01-29T03:04:45.779Z,1.30
2023-01-29T03:07:42.741Z,1.30
2023-01-29T03:10:23.275Z,1.30
2023-01-29T03:13:02.798Z,1.60
2023-01-29T03:15:39.588Z,1.60
2023-01-29T03:18:09.062Z,1.30
2023-01-29T03:20:48.474Z,1.60
2023-01-29T03:23:44.192Z,1.40
2023-01-29T03:26:34.436Z,1.40
2023-01-29T03:29:22.445Z,1.50
2023-01-29T03:32:09.029Z,1.60
2023-01-29T03:34:46.705Z,1.70
2023-01-29T03:37:18.947Z,1.40
2023-01-29T03:39:46.236Z,1.40
2023-01-29T03:42:23.807Z,1.60
2023-01-29T03:45:13.132Z,1.20
2023-01-29T03:47:59.663Z,1.20
2023-01-29T03:50:54.744Z,1.30
2023-01-29T03:53:35.323Z,1.10
2023-01-29T03:56:46.235Z,1.40
2023-01-29T03:59:19.631Z,1.10
2023-01-29T04:01:56.887Z,1.20
2023-01-29T04:04:39.212Z,1.10
2023-01-29T04:07:24.093Z,1.50
2023-01-29T04:10:14.922Z,1.20
2023-01-29T04:15:39.111Z,1.20
2023-01-29T04:18:06.129Z,1.40
2023-01-29T04:20:36.434Z,1.20
2023-01-29T04:23:07.058Z,1.20
2023-01-29T04:25:48.582Z,1.30
2023-01-29T04:28:31.015Z,1.60
2023-01-29T04:31:07.869Z,1.30
2023-01-29T04:36:56.812Z,1.30
2023-01-29T04:39:26.955Z,1.30
2023-01-29T04:42:22.830Z,1.40
2023-01-29T04:45:11.662Z,1.60
2023-01-29T04:47:54.035Z,1.30
2023-01-29T04:50:29.875Z,1.60
2023-01-29T04:53:03.011Z,1.30
2023-01-29T04:55:57.329Z,1.40
2023-01-29T04:58:52.190Z,1.10
2023-01-29T05:01:34.739Z,1.50
2023-01-29T05:04:08.901Z,1.30
2023-01-29T05:06:37.641Z,1.20
2023-01-29T05:09:05.548Z,1.20
2023-01-29T05:11:35.701Z,1.50
2023-01-29T05:14:04.963Z,1.30
2023-01-29T05:16:45.394Z,1.60
2023-01-29T05:19:14.825Z,1.30
2023-01-29T05:21:44.957Z,1.60
2023-01-29T05:24:24.593Z,1.10
2023-01-29T05:27:12.574Z,1.20
2023-01-29T05:29:46.828Z,1.10
2023-01-29T05:32:15.795Z,1.30
2023-01-29T05:34:43.121Z,1.60
2023-01-29T05:37:11.367Z,1.30
2023-01-29T05:39:38.916Z,1.10
2023-01-29T05:42:06.100Z,1.20
2023-01-29T05:44:33.423Z,1.30
2023-01-29T05:47:02.908Z,1.20
2023-01-29T05:49:30.275Z,1.10
2023-01-29T05:51:57.432Z,1.20
2023-01-29T05:54:24.275Z,1.50
2023-01-29T05:56:54.064Z,1.30
2023-01-29T05:59:21.547Z,1.00
2023-01-29T06:01:56.216Z,1.00
2023-01-29T06:04:23.546Z,0.90
2023-01-29T06:06:50.933Z,0.90
2023-01-29T06:09:18.089Z,0.90
2023-01-29T06:11:45.058Z,0.90
2023-01-29T06:14:12.131Z,0.90
2023-01-29T06:16:39.175Z,1.10
2023-01-29T06:19:06.104Z,1.10
2023-01-29T06:21:33.576Z,1.10
2023-01-29T06:24:03.549Z,1.10
2023-01-29T06:26:30.767Z,1.20
2023-01-29T06:28:57.663Z,1.20
2023-01-29T06:31:37.676Z,1.10
2023-01-29T06:34:05.969Z,1.30
2023-01-29T06:36:33.253Z,1.30
2023-01-29T06:39:00.707Z,1.00
2023-01-29T06:41:29.863Z,1.10
2023-01-29T06:43:57.070Z,1.40
2023-01-29T06:46:24.257Z,1.10
2023-01-29T06:48:53.632Z,1.20
2023-01-29T06:51:23.118Z,1.40
2023-01-29T06:53:54.800Z,1.10
2023-01-29T06:56:22.548Z,1.40
2023-01-29T06:58:49.869Z,1.30
2023-01-29T07:01:33.375Z,1.40
2023-01-29T07:04:01.927Z,1.20
2023-01-29T07:06:30.276Z,1.10
2023-01-29T07:08:59.610Z,1.20
2023-01-29T07:11:26.966Z,1.10
2023-01-29T07:13:54.006Z,1.20
2023-01-29T07:16:20.960Z,1.10
2023-01-29T07:18:48.086Z,1.10
2023-01-29T07:21:17.834Z,1.10
2023-01-29T07:23:45.032Z,1.20
2023-01-29T07:26:15.284Z,1.50
2023-01-29T07:28:42.555Z,1.30
2023-01-29T07:31:13.389Z,1.40
2023-01-29T07:33:40.780Z,1.60
2023-01-29T07:36:09.367Z,1.40
2023-01-29T07:38:36.324Z,1.30
2023-01-29T07:41:03.717Z,1.30
2023-01-29T07:43:30.914Z,1.30
2023-01-29T07:46:02.141Z,1.50
2023-01-29T07:48:29.453Z,1.80
2023-01-29T07:50:57.300Z,1.60
2023-01-29T07:53:27.490Z,1.80
2023-01-29T07:55:54.926Z,1.70
2023-01-29T07:58:22.031Z,1.90
2023-01-29T08:00:49.504Z,1.90
2023-01-29T08:03:18.483Z,1.80
2023-01-29T08:05:45.985Z,2.20
2023-01-29T08:08:13.683Z,2.30
2023-01-29T08:10:42.056Z,2.10
2023-01-29T08:13:09.072Z,2.20
2023-01-29T08:15:38.752Z,2.40
2023-01-29T08:18:08.225Z,2.30
2023-01-29T08:20:35.311Z,2.40
2023-01-29T08:23:04.961Z,2.40
2023-01-29T08:25:34.939Z,2.40
2023-01-29T08:28:02.054Z,2.50
2023-01-29T08:30:31.490Z,2.70
2023-01-29T08:32:58.706Z,2.60
2023-01-29T08:35:26.622Z,2.70
2023-01-29T08:37:59.843Z,2.60
2023-01-29T08:40:32.197Z,2.60
2023-01-29T08:43:06.939Z,3.00
2023-01-29T08:45:37.968Z,2.70
2023-01-29T08:48:05.683Z,3.00
2023-01-29T08:50:42.810Z,2.60
2023-01-29T08:53:13.211Z,2.70
2023-01-29T08:55:40.974Z,2.50
2023-01-29T08:58:10.561Z,2.60
2023-01-29T09:00:38.042Z,2.80
2023-01-29T09:03:07.725Z,2.80
2023-01-29T09:05:35.748Z,2.70
2023-01-29T09:08:03.158Z,2.90
2023-01-29T09:10:30.220Z,2.80
2023-01-29T09:12:57.556Z,2.90
2023-01-29T09:15:25.236Z,3.10
2023-01-29T09:17:52.325Z,3.40
2023-01-29T09:20:19.992Z,3.10
2023-01-29T09:22:52.026Z,3.60
2023-01-29T09:25:19.380Z,3.50
2023-01-29T09:27:46.391Z,3.60
2023-01-29T09:30:13.928Z,3.50
2023-01-29T09:32:53.313Z,3.40
2023-01-29T09:35:22.809Z,3.70
2023-01-29T09:37:50.853Z,3.60
2023-01-29T09:40:35.923Z,3.60
2023-01-29T09:43:27.638Z,4.00
2023-01-29T09:46:26.549Z,3.70
2023-01-29T09:49:08.043Z,3.90
2023-01-29T09:51:41.498Z,3.70
2023-01-29T09:54:11.712Z,4.30
2023-01-29T09:56:38.816Z,4.40
2023-01-29T09:59:05.987Z,4.70
2023-01-29T10:01:36.298Z,4.50
2023-01-29T10:04:39.437Z,4.70
2023-01-29T10:07:28.248Z,4.70
2023-01-29T10:10:10.485Z,4.50
2023-01-29T10:13:01.915Z,4.60
2023-01-29T10:15:57.283Z,4.60
2023-01-29T10:18:39.336Z,4.50
2023-01-29T10:21:15.341Z,4.60
2023-01-29T10:24:07.839Z,4.50
2023-01-29T10:26:38.113Z,4.60
2023-01-29T10:29:08.432Z,4.70
2023-01-29T10:31:42.132Z,4.60
2023-01-29T10:34:35.676Z,4.70
2023-01-29T10:37:16.743Z,4.60
2023-01-29T10:39:43.728Z,4.50
2023-01-29T10:42:20.070Z,4.60
2023-01-29T10:45:22.556Z,4.90
2023-01-29T10:48:05.520Z,5.00
2023-01-29T10:50:52.598Z,5.10
2023-01-29T10:53:43.625Z,4.90
2023-01-29T10:56:32.388Z,5.30
2023-01-29T10:59:05.843Z,5.30
2023-01-29T11:01:33.010Z,5.00
2023-01-29T11:04:06.812Z,5.20
2023-01-29T11:06:40.519Z,4.90
2023-01-29T11:09:26.612Z,4.80
2023-01-29T11:12:13.901Z,4.80
2023-01-29T11:14:58.294Z,4.90
2023-01-29T11:17:29.083Z,4.80
2023-01-29T11:19:57.096Z,4.80
2023-01-29T11:22:27.104Z,4.90
2023-01-29T11:25:32.656Z,4.80
2023-01-29T11:28:02.255Z,4.90
2023-01-29T11:30:36.262Z,5.10
2023-01-29T11:33:19.831Z,4.90
2023-01-29T11:35:46.961Z,5.20
2023-01-29T11:38:22.100Z,4.90
2023-01-29T11:40:53.544Z,4.90
2023-01-29T11:43:26.872Z,4.80
2023-01-29T11:45:59.996Z,4.90
2023-01-29T11:48:34.133Z,4.70
2023-01-29T11:51:04.287Z,4.80
2023-01-29T11:53:37.918Z,4.80
2023-01-29T11:56:40.055Z,4.70
2023-01-29T11:59:21.847Z,4.80
2023-01-29T12:01:49.067Z,4.80
2023-01-29T12:04:24.733Z,4.70
2023-01-29T12:06:54.338Z,4.70
2023-01-29T12:09:24.787Z,4.90
2023-01-29T12:11:53.139Z,5.10
2023-01-29T12:14:43.173Z,5.10
2023-01-29T12:17:29.559Z,5.20
2023-01-29T12:20:04.038Z,5.10
2023-01-29T12:22:57.272Z,5.00
2023-01-29T12:25:50.821Z,5.00
2023-01-29T12:28:32.394Z,5.10
2023-01-29T12:31:24.699Z,5.30
2023-01-29T12:34:12.221Z,5.20
2023-01-29T12:36:57.401Z,5.30
2023-01-29T12:39:24.663Z,5.70
2023-01-29T12:42:18.455Z,5.70
2023-01-29T12:44:52.745Z,5.70
2023-01-29T12:47:41.473Z,5.80
2023-01-29T12:50:20.391Z,5.80
2023-01-29T12:53:01.028Z,5.70
2023-01-29T12:55:39.665Z,5.60
2023-01-29T12:58:36.692Z,5.60
2023-01-29T13:01:12.642Z,5.40
2023-01-29T13:04:15.012Z,5.30
2023-01-29T13:06:50.973Z,5.20
2023-01-29T13:09:23.538Z,5.30
2023-01-29T13:12:12.437Z,5.10
2023-01-29T13:14:51.987Z,5.10
2023-01-29T13:17:44.927Z,5.40
2023-01-29T13:20:34.204Z,5.20
2023-01-29T13:23:35.704Z,5.10
2023-01-29T13:26:02.925Z,5.20
2023-01-29T13:28:33.808Z,5.10
2023-01-29T13:31:37.418Z,5.40
2023-01-29T13:34:15.484Z,5.30
2023-01-29T13:36:53.218Z,5.30
2023-01-29T13:39:25.916Z,5.20
2023-01-29T13:41:54.396Z,5.30
2023-01-29T13:44:32.538Z,4.90
2023-01-29T13:47:01.449Z,5.00
2023-01-29T13:49:37.610Z,5.10
2023-01-29T13:52:29.032Z,5.00
2023-01-29T13:55:01.186Z,4.80
2023-01-29T13:57:49.342Z,4.50
2023-01-29T14:00:30.879Z,4.70
2023-01-29T14:03:14.067Z,4.80
2023-01-29T14:05:56.764Z,4.50
2023-01-29T14:08:37.881Z,4.90
2023-01-29T14:11:16.962Z,4.50
2023-01-29T14:13:47.130Z,4.70
2023-01-29T14:16:14.593Z,4.70
2023-01-29T14:18:55.665Z,4.60
2023-01-29T14:21:32.569Z,4.50
2023-01-29T14:24:19.678Z,4.70
2023-01-29T14:26:55.487Z,4.90
2023-01-29T14:29:34.605Z,4.80
2023-01-29T14:32:08.392Z,4.70
2023-01-29T14:35:44.845Z,4.70
2023-01-29T14:38:27.649Z,4.40
2023-01-29T14:41:31.567Z,4.70
2023-01-29T14:44:37.301Z,4.40
2023-01-29T14:47:30.641Z,4.30
2023-01-29T14:50:28.177Z,4.30
2023-01-29T14:53:40.125Z,4.50
2023-01-29T14:59:31.878Z,4.20
2023-01-29T15:02:14.416Z,4.10
2023-01-29T15:05:10.885Z,4.30
2023-01-29T15:08:50.756Z,4.20
2023-01-29T15:11:44.200Z,4.20
2023-01-29T15:15:13.137Z,4.00
2023-01-29T15:18:01.783Z,4.00
2023-01-29T15:20:46.542Z,4.00
2023-01-29T15:23:52.770Z,3.90
2023-01-29T15:26:33.782Z,3.60
2023-01-29T15:29:33.846Z,3.70
2023-01-29T15:32:05.447Z,3.80
2023-01-29T15:34:41.915Z,3.40
2023-01-29T15:37:30.179Z,3.60
2023-01-29T15:40:08.535Z,3.30
2023-01-29T15:45:43.534Z,3.20
2023-01-29T15:48:23.329Z,3.40
2023-01-29T15:50:56.766Z,3.40
2023-01-29T15:53:41.801Z,3.20
2023-01-29T15:56:48.909Z,2.90
2023-01-29T15:59:31.211Z,2.90
2023-01-29T16:02:21.197Z,2.70
2023-01-29T16:04:49.864Z,2.80
2023-01-29T16:07:25.221Z,2.60
2023-01-29T16:09:57.500Z,2.40
2023-01-29T16:12:39.447Z,2.50
2023-01-29T16:15:17.625Z,2.50
2023-01-29T16:17:58.328Z,2.50
2023-01-29T16:20:43.527Z,2.10
2023-01-29T16:23:52.507Z,2.30
2023-01-29T16:26:42.719Z,2.20
2023-01-29T16:29:15.420Z,2.10
2023-01-29T16:31:48.729Z,2.10
2023-01-29T16:34:32.144Z,2.20
2023-01-29T16:37:06.956Z,2.00
2023-01-29T16:39:40.339Z,1.80
2023-01-29T16:42:18.050Z,1.90
2023-01-29T16:44:59.906Z,1.90
2023-01-29T16:48:11.708Z,2.00
2023-01-29T16:50:54.248Z,1.90
2023-01-29T16:53:29.328Z,1.80
2023-01-29T16:56:05.788Z,1.90
2023-01-29T16:58:33.027Z,2.00
2023-01-29T17:01:08.714Z,1.80
2023-01-29T17:03:38.575Z,1.90
2023-01-29T17:06:25.017Z,2.00
2023-01-29T17:08:52.983Z,1.70
2023-01-29T17:11:38.722Z,1.90
2023-01-29T17:14:07.711Z,1.90
2023-01-29T17:16:51.280Z,1.70
2023-01-29T17:19:20.724Z,2.10
2023-01-29T17:21:48.534Z,2.10
2023-01-29T17:24:15.844Z,2.10
2023-01-29T17:26:43.873Z,2.00
2023-01-29T17:29:18.047Z,2.20
2023-01-29T17:31:45.386Z,2.10
2023-01-29T17:34:19.877Z,2.20
2023-01-29T17:36:58.883Z,2.20
2023-01-29T17:39:25.918Z,2.20
2023-01-29T17:41:58.201Z,2.20
2023-01-29T17:44:28.196Z,2.10
2023-01-29T17:46:55.297Z,2.10
2023-01-29T17:49:24.098Z,2.10
2023-01-29T17:51:53.160Z,2.10
2023-01-29T17:54:21.737Z,2.10
2023-01-29T17:56:49.936Z,1.90
2023-01-29T17:59:19.745Z,2.10
2023-01-29T18:01:50.277Z,2.00
2023-01-29T18:04:21.081Z,2.00
2023-01-29T18:06:50.416Z,2.20
2023-01-29T18:09:21.023Z,2.10
2023-01-29T18:11:49.660Z,2.10
2023-01-29T18:14:18.079Z,2.00
2023-01-29T18:16:48.191Z,2.10
2023-01-29T18:19:21.332Z,2.20
2023-01-29T18:21:48.687Z,2.00
2023-01-29T18:24:15.947Z,2.10
2023-01-29T18:26:43.223Z,2.10
2023-01-29T18:29:10.646Z,2.10
2023-01-29T18:31:37.794Z,1.90
2023-01-29T18:34:05.386Z,2.00
2023-01-29T18:36:35.810Z,2.10
2023-01-29T18:39:07.846Z,2.10
2023-01-29T18:41:38.260Z,2.10
2023-01-29T18:44:05.678Z,1.80
2023-01-29T18:46:36.499Z,2.10
2023-01-29T18:49:03.828Z,2.10
2023-01-29T18:51:30.989Z,2.00
2023-01-29T18:53:58.294Z,2.00
2023-01-29T18:56:25.848Z,2.10
2023-01-29T18:58:59.373Z,2.10
2023-01-29T19:01:27.468Z,2.10
2023-01-29T19:03:54.737Z,2.20
2023-01-29T19:06:24.247Z,2.10
2023-01-29T19:08:51.883Z,2.10
2023-01-29T19:11:22.199Z,2.00
2023-01-29T19:13:50.153Z,2.30
2023-01-29T19:16:17.701Z,2.00
2023-01-29T19:18:44.740Z,2.10
2023-01-29T19:21:14.198Z,1.90
2023-01-29T19:23:43.021Z,2.00
2023-01-29T19:26:10.917Z,2.00
2023-01-29T19:28:38.056Z,2.10
2023-01-29T19:31:05.370Z,2.00
2023-01-29T19:33:32.654Z,2.10
2023-01-29T19:36:00.099Z,2.00
2023-01-29T19:38:27.971Z,2.00
2023-01-29T19:40:58.441Z,2.00
2023-01-29T19:43:41.050Z,2.00
2023-01-29T19:46:08.017Z,1.90
2023-01-29T19:48:35.285Z,1.60
2023-01-29T19:51:08.976Z,2.10
2023-01-29T19:53:37.858Z,1.70
2023-01-29T19:56:11.083Z,1.90
2023-01-29T19:58:38.497Z,2.10
2023-01-29T20:01:12.701Z,2.10
2023-01-29T20:03:42.015Z,1.70
2023-01-29T20:06:09.938Z,2.00
2023-01-29T20:08:39.884Z,1.90
2023-01-29T20:11:07.334Z,1.70
2023-01-29T20:13:34.796Z,1.70
2023-01-29T20:16:04.211Z,1.90
2023-01-29T20:18:31.930Z,1.90
2023-01-29T20:20:59.968Z,1.60
2023-01-29T20:23:37.115Z,1.60
2023-01-29T20:26:05.398Z,1.80
2023-01-29T20:28:32.843Z,1.70
2023-01-29T20:30:59.913Z,1.70
2023-01-29T20:33:27.638Z,1.40
2023-01-29T20:35:59.999Z,1.60
2023-01-29T20:38:30.705Z,1.40
2023-01-29T20:41:14.203Z,1.50
2023-01-29T20:43:42.123Z,1.40
2023-01-29T20:46:09.372Z,1.50
2023-01-29T20:48:39.132Z,1.40
2023-01-29T20:51:15.723Z,1.20
2023-01-29T20:53:45.787Z,1.20
2023-01-29T20:56:14.771Z,1.20
2023-01-29T20:58:42.826Z,1.50
2023-01-29T21:01:11.925Z,1.50
2023-01-29T21:03:40.083Z,1.40
2023-01-29T21:06:08.160Z,1.30
2023-01-29T21:08:36.304Z,1.30
2023-01-29T21:11:05.274Z,1.40
2023-01-29T21:13:33.000Z,1.20
2023-01-29T21:16:00.791Z,1.20
2023-01-29T21:18:28.105Z,0.90
2023-01-29T21:20:55.130Z,1.30
2023-01-29T21:23:28.940Z,0.90
2023-01-29T21:26:04.735Z,1.00
2023-01-29T21:28:32.432Z,0.80
2023-01-29T21:31:07.763Z,0.80
2023-01-29T21:33:35.261Z,1.00
2023-01-29T21:36:03.057Z,0.70
2023-01-29T21:38:30.088Z,1.00
2023-01-29T21:41:05.757Z,0.40
2023-01-29T21:43:33.834Z,0.70
2023-01-29T21:46:06.093Z,0.80
2023-01-29T21:48:33.352Z,0.80
2023-01-29T21:51:00.322Z,0.50
2023-01-29T21:53:27.670Z,0.30
2023-01-29T21:56:03.168Z,0.30
2023-01-29T21:58:30.660Z,0.30
2023-01-29T22:01:36.725Z,0.10
2023-01-29T22:03:47.158Z,0.20
2023-01-29T22:06:14.808Z,0.30
2023-01-29T22:08:41.849Z,0.00
2023-01-29T22:11:09.437Z,0.10
2023-01-29T22:13:36.616Z,0.30
2023-01-29T22:16:04.818Z,0.10
2023-01-29T22:18:32.008Z,0.00
2023-01-29T22:20:59.771Z,0.30
2023-01-29T22:23:27.364Z,0.30
2023-01-29T22:25:54.796Z,0.00
2023-01-29T22:28:21.935Z,0.10
2023-01-29T22:30:48.967Z,-0.10
2023-01-29T22:33:16.235Z,0.10
2023-01-29T22:35:43.252Z,0.00
2023-01-29T22:38:10.673Z,-0.20
2023-01-29T22:40:37.968Z,-0.10
2023-01-29T22:43:09.208Z,0.10
2023-01-29T22:45:39.548Z,0.10
2023-01-29T22:48:08.194Z,-0.40
2023-01-29T22:50:35.603Z,-0.20
2023-01-29T22:53:02.756Z,-0.40
2023-01-29T22:55:33.183Z,-0.40
2023-01-29T22:58:01.003Z,-0.40
2023-01-29T23:00:28.474Z,-0.20
2023-01-29T23:02:58.561Z,-0.10
2023-01-29T23:05:25.874Z,-0.20
2023-01-29T23:07:53.030Z,-0.40
2023-01-29T23:10:20.341Z,-0.20
2023-01-29T23:12:47.842Z,-0.40
2023-01-29T23:15:14.926Z,-0.40
2023-01-29T23:17:42.054Z,-0.60
2023-01-29T23:20:19.935Z,-0.60
2023-01-29T23:22:48.116Z,-0.70
2023-01-29T23:25:15.402Z,-0.70
2023-01-29T23:27:42.594Z,-0.40
2023-01-29T23:30:10.064Z,-0.60
2023-01-29T23:32:37.190Z,-0.60
2023-01-29T23:35:04.584Z,-0.50
2023-01-29T23:37:31.659Z,-0.60
2023-01-29T23:39:58.807Z,-0.40
2023-01-29T23:42:26.413Z,-0.50
2023-01-29T23:44:53.405Z,-0.50
2023-01-29T23:47:20.372Z,-0.50
2023-01-29T23:49:47.782Z,-0.50
2023-01-29T23:52:15.097Z,-0.40
2023-01-29T23:54:45.717Z,-0.50
2023-01-29T23:57:12.917Z,-0.50
2023-01-29T23:59:39.897Z,-0.60
